sensor_id;sensor_type;location;lat;lon;timestamp;P1;durP1;ratioP1;P2;durP2;ratioP2
15194;SDS011;7698;42.478;23.756;2022-09-17T00:01:55;6.00;;;5.50;;
15194;SDS011;7698;42.478;23.756;2022-09-17T00:04:23;8.13;;;7.43;;
15194;SDS011;7698;42.478;23.756;2022-09-17T00:06:49;9.13;;;8.20;;
15194;SDS011;7698;42.478;23.756;2022-09-17T00:09:16;10.50;;;9.60;;
15194;SDS011;7698;42.478;23.756;2022-09-17T00:11:42;10.48;;;9.77;;
15194;SDS011;7698;42.478;23.756;2022-09-17T00:14:12;9.30;;;8.38;;
15194;SDS011;7698;42.478;23.756;2022-09-17T00:16:39;8.43;;;7.63;;
15194;SDS011;7698;42.478;23.756;2022-09-17T00:19:07;7.53;;;6.82;;
15194;SDS011;7698;42.478;23.756;2022-09-17T00:21:37;7.85;;;7.07;;
15194;SDS011;7698;42.478;23.756;2022-09-17T00:24:04;7.53;;;6.72;;
15194;SDS011;7698;42.478;23.756;2022-09-17T00:26:32;7.90;;;6.13;;
15194;SDS011;7698;42.478;23.756;2022-09-17T00:28:59;5.78;;;5.28;;
15194;SDS011;7698;42.478;23.756;2022-09-17T00:31:26;6.18;;;5.57;;
15194;SDS011;7698;42.478;23.756;2022-09-17T00:33:53;7.85;;;4.95;;
15194;SDS011;7698;42.478;23.756;2022-09-17T00:36:20;5.43;;;4.78;;
15194;SDS011;7698;42.478;23.756;2022-09-17T00:38:49;4.60;;;4.10;;
15194;SDS011;7698;42.478;23.756;2022-09-17T00:41:16;5.28;;;4.47;;
15194;SDS011;7698;42.478;23.756;2022-09-17T00:43:43;4.45;;;4.05;;
15194;SDS011;7698;42.478;23.756;2022-09-17T00:46:13;8.93;;;5.20;;
15194;SDS011;7698;42.478;23.756;2022-09-17T00:48:41;6.05;;;4.43;;
15194;SDS011;7698;42.478;23.756;2022-09-17T00:51:08;6.60;;;5.57;;
15194;SDS011;7698;42.478;23.756;2022-09-17T00:53:36;5.65;;;5.15;;
15194;SDS011;7698;42.478;23.756;2022-09-17T00:56:07;6.07;;;5.20;;
15194;SDS011;7698;42.478;23.756;2022-09-17T00:58:35;8.38;;;7.43;;
15194;SDS011;7698;42.478;23.756;2022-09-17T01:01:02;7.18;;;6.53;;
15194;SDS011;7698;42.478;23.756;2022-09-17T01:03:28;6.63;;;6.13;;
15194;SDS011;7698;42.478;23.756;2022-09-17T05:46:28;8.70;;;3.55;;
15194;SDS011;7698;42.478;23.756;2022-09-17T05:48:55;7.03;;;3.70;;
15194;SDS011;7698;42.478;23.756;2022-09-17T05:51:22;7.85;;;3.38;;
15194;SDS011;7698;42.478;23.756;2022-09-17T05:53:49;8.85;;;3.80;;
15194;SDS011;7698;42.478;23.756;2022-09-17T05:56:16;6.03;;;3.17;;
15194;SDS011;7698;42.478;23.756;2022-09-17T05:58:43;3.78;;;2.63;;
15194;SDS011;7698;42.478;23.756;2022-09-17T06:01:10;5.85;;;3.15;;
15194;SDS011;7698;42.478;23.756;2022-09-17T06:03:41;5.28;;;2.95;;
15194;SDS011;7698;42.478;23.756;2022-09-17T06:06:08;7.22;;;3.53;;
15194;SDS011;7698;42.478;23.756;2022-09-17T06:08:35;8.05;;;3.10;;
15194;SDS011;7698;42.478;23.756;2022-09-17T06:11:02;6.82;;;2.90;;
15194;SDS011;7698;42.478;23.756;2022-09-17T06:13:29;4.05;;;2.33;;
15194;SDS011;7698;42.478;23.756;2022-09-17T06:15:56;6.38;;;2.97;;
15194;SDS011;7698;42.478;23.756;2022-09-17T06:18:22;7.95;;;3.22;;
15194;SDS011;7698;42.478;23.756;2022-09-17T06:20:53;4.55;;;2.70;;
15194;SDS011;7698;42.478;23.756;2022-09-17T06:23:20;5.35;;;2.25;;
15194;SDS011;7698;42.478;23.756;2022-09-17T06:25:51;6.50;;;3.03;;
15194;SDS011;7698;42.478;23.756;2022-09-17T06:28:18;4.57;;;2.83;;
15194;SDS011;7698;42.478;23.756;2022-09-17T06:30:45;6.60;;;2.75;;
15194;SDS011;7698;42.478;23.756;2022-09-17T06:33:12;4.88;;;2.53;;
15194;SDS011;7698;42.478;23.756;2022-09-17T06:35:39;7.50;;;3.42;;
15194;SDS011;7698;42.478;23.756;2022-09-17T06:38:07;6.30;;;3.30;;
15194;SDS011;7698;42.478;23.756;2022-09-17T06:40:34;4.60;;;2.72;;
15194;SDS011;7698;42.478;23.756;2022-09-17T06:43:00;5.10;;;2.78;;
15194;SDS011;7698;42.478;23.756;2022-09-17T06:45:27;5.00;;;2.45;;
15194;SDS011;7698;42.478;23.756;2022-09-17T06:47:54;4.28;;;2.65;;
15194;SDS011;7698;42.478;23.756;2022-09-17T06:50:20;3.95;;;2.30;;
15194;SDS011;7698;42.478;23.756;2022-09-17T06:52:47;4.78;;;2.30;;
15194;SDS011;7698;42.478;23.756;2022-09-17T06:55:16;4.40;;;2.28;;
15194;SDS011;7698;42.478;23.756;2022-09-17T06:57:42;6.55;;;2.63;;
15194;SDS011;7698;42.478;23.756;2022-09-17T07:00:09;4.90;;;2.30;;
15194;SDS011;7698;42.478;23.756;2022-09-17T07:02:36;2.45;;;1.63;;
15194;SDS011;7698;42.478;23.756;2022-09-17T07:05:03;6.55;;;2.72;;
15194;SDS011;7698;42.478;23.756;2022-09-17T07:07:30;2.83;;;1.90;;
15194;SDS011;7698;42.478;23.756;2022-09-17T07:09:56;3.35;;;1.65;;
15194;SDS011;7698;42.478;23.756;2022-09-17T07:12:24;5.72;;;2.45;;
15194;SDS011;7698;42.478;23.756;2022-09-17T07:14:51;5.97;;;2.60;;
15194;SDS011;7698;42.478;23.756;2022-09-17T07:17:18;3.83;;;1.92;;
15194;SDS011;7698;42.478;23.756;2022-09-17T07:19:44;5.15;;;2.20;;
15194;SDS011;7698;42.478;23.756;2022-09-17T07:22:11;5.30;;;2.25;;
15194;SDS011;7698;42.478;23.756;2022-09-17T07:24:38;4.85;;;2.15;;
15194;SDS011;7698;42.478;23.756;2022-09-17T07:27:04;9.02;;;2.40;;
15194;SDS011;7698;42.478;23.756;2022-09-17T07:29:32;6.20;;;2.05;;
15194;SDS011;7698;42.478;23.756;2022-09-17T07:31:59;4.05;;;2.00;;
15194;SDS011;7698;42.478;23.756;2022-09-17T07:34:25;3.40;;;1.85;;
15194;SDS011;7698;42.478;23.756;2022-09-17T07:36:53;5.18;;;2.00;;
15194;SDS011;7698;42.478;23.756;2022-09-17T07:39:19;2.75;;;1.65;;
15194;SDS011;7698;42.478;23.756;2022-09-17T07:41:46;4.28;;;1.98;;
15194;SDS011;7698;42.478;23.756;2022-09-17T07:44:12;5.05;;;2.05;;
15194;SDS011;7698;42.478;23.756;2022-09-17T07:46:40;5.90;;;1.60;;
15194;SDS011;7698;42.478;23.756;2022-09-17T07:49:07;3.60;;;1.83;;
15194;SDS011;7698;42.478;23.756;2022-09-17T07:51:34;6.82;;;1.65;;
15194;SDS011;7698;42.478;23.756;2022-09-17T07:54:00;3.28;;;1.60;;
15194;SDS011;7698;42.478;23.756;2022-09-17T07:56:27;5.88;;;1.70;;
15194;SDS011;7698;42.478;23.756;2022-09-17T07:58:54;3.55;;;1.58;;
15194;SDS011;7698;42.478;23.756;2022-09-17T08:01:20;2.75;;;1.63;;
15194;SDS011;7698;42.478;23.756;2022-09-17T08:03:49;3.60;;;1.70;;
15194;SDS011;7698;42.478;23.756;2022-09-17T08:06:17;3.38;;;1.60;;
15194;SDS011;7698;42.478;23.756;2022-09-17T08:08:45;2.67;;;1.20;;
15194;SDS011;7698;42.478;23.756;2022-09-17T08:11:12;4.05;;;1.10;;
15194;SDS011;7698;42.478;23.756;2022-09-17T08:13:39;2.03;;;1.20;;
15194;SDS011;7698;42.478;23.756;2022-09-17T08:16:06;1.65;;;0.70;;
15194;SDS011;7698;42.478;23.756;2022-09-17T08:18:33;2.88;;;1.15;;
15194;SDS011;7698;42.478;23.756;2022-09-17T08:21:02;4.60;;;1.00;;
15194;SDS011;7698;42.478;23.756;2022-09-17T08:23:29;3.63;;;1.00;;
15194;SDS011;7698;42.478;23.756;2022-09-17T08:25:57;2.60;;;1.20;;
15194;SDS011;7698;42.478;23.756;2022-09-17T08:28:24;2.22;;;1.00;;
15194;SDS011;7698;42.478;23.756;2022-09-17T08:30:51;3.20;;;1.40;;
15194;SDS011;7698;42.478;23.756;2022-09-17T08:33:18;3.83;;;1.20;;
15194;SDS011;7698;42.478;23.756;2022-09-17T08:35:50;1.08;;;0.98;;
15194;SDS011;7698;42.478;23.756;2022-09-17T08:38:18;1.13;;;0.80;;
15194;SDS011;7698;42.478;23.756;2022-09-17T08:40:49;0.70;;;0.70;;
15194;SDS011;7698;42.478;23.756;2022-09-17T08:43:19;2.15;;;1.17;;
15194;SDS011;7698;42.478;23.756;2022-09-17T08:45:50;2.95;;;0.85;;
15194;SDS011;7698;42.478;23.756;2022-09-17T08:48:17;2.55;;;1.05;;
15194;SDS011;7698;42.478;23.756;2022-09-17T08:50:43;2.28;;;0.90;;
15194;SDS011;7698;42.478;23.756;2022-09-17T08:53:18;2.42;;;0.80;;
15194;SDS011;7698;42.478;23.756;2022-09-17T08:55:50;2.90;;;1.13;;
15194;SDS011;7698;42.478;23.756;2022-09-17T08:58:22;2.15;;;0.90;;
15194;SDS011;7698;42.478;23.756;2022-09-17T09:00:52;1.92;;;1.13;;
15194;SDS011;7698;42.478;23.756;2022-09-17T09:03:26;1.45;;;0.90;;
15194;SDS011;7698;42.478;23.756;2022-09-17T09:05:55;3.22;;;1.45;;
15194;SDS011;7698;42.478;23.756;2022-09-17T09:08:25;1.95;;;1.60;;
15194;SDS011;7698;42.478;23.756;2022-09-17T09:10:54;2.78;;;1.30;;
15194;SDS011;7698;42.478;23.756;2022-09-17T09:13:21;2.42;;;1.50;;
15194;SDS011;7698;42.478;23.756;2022-09-17T09:15:50;2.45;;;1.20;;
15194;SDS011;7698;42.478;23.756;2022-09-17T09:18:19;12.10;;;11.00;;
15194;SDS011;7698;42.478;23.756;2022-09-17T09:20:49;16.85;;;15.38;;
15194;SDS011;7698;42.478;23.756;2022-09-17T09:23:18;4.63;;;3.00;;
15194;SDS011;7698;42.478;23.756;2022-09-17T09:25:53;54.13;;;49.25;;
15194;SDS011;7698;42.478;23.756;2022-09-17T09:28:28;16.90;;;15.55;;
15194;SDS011;7698;42.478;23.756;2022-09-17T09:30:59;19.17;;;17.38;;
15194;SDS011;7698;42.478;23.756;2022-09-17T09:33:31;3.83;;;3.28;;
15194;SDS011;7698;42.478;23.756;2022-09-17T09:35:58;4.43;;;2.28;;
15194;SDS011;7698;42.478;23.756;2022-09-17T09:38:28;5.95;;;4.30;;
15194;SDS011;7698;42.478;23.756;2022-09-17T09:40:59;2.25;;;1.85;;
15194;SDS011;7698;42.478;23.756;2022-09-17T09:43:35;2.25;;;1.95;;
15194;SDS011;7698;42.478;23.756;2022-09-17T09:46:12;3.28;;;1.48;;
15194;SDS011;7698;42.478;23.756;2022-09-17T09:48:42;7.43;;;1.95;;
15194;SDS011;7698;42.478;23.756;2022-09-17T09:51:17;11.50;;;2.95;;
15194;SDS011;7698;42.478;23.756;2022-09-17T09:53:49;4.43;;;2.53;;
15194;SDS011;7698;42.478;23.756;2022-09-17T09:56:26;2.78;;;1.80;;
15194;SDS011;7698;42.478;23.756;2022-09-17T09:58:55;5.50;;;1.95;;
15194;SDS011;7698;42.478;23.756;2022-09-17T10:01:21;4.45;;;2.22;;
15194;SDS011;7698;42.478;23.756;2022-09-17T10:03:50;5.43;;;2.58;;
15194;SDS011;7698;42.478;23.756;2022-09-17T10:06:18;3.63;;;1.80;;
15194;SDS011;7698;42.478;23.756;2022-09-17T10:11:28;2.60;;;2.22;;
15194;SDS011;7698;42.478;23.756;2022-09-17T10:13:55;5.95;;;4.22;;
15194;SDS011;7698;42.478;23.756;2022-09-17T10:16:39;5.22;;;3.63;;
15194;SDS011;7698;42.478;23.756;2022-09-17T10:19:10;5.35;;;2.92;;
15194;SDS011;7698;42.478;23.756;2022-09-17T10:21:38;8.30;;;6.85;;
15194;SDS011;7698;42.478;23.756;2022-09-17T10:24:10;33.80;;;30.48;;
15194;SDS011;7698;42.478;23.756;2022-09-17T10:26:38;10.65;;;9.30;;
15194;SDS011;7698;42.478;23.756;2022-09-17T10:29:09;5.68;;;4.10;;
15194;SDS011;7698;42.478;23.756;2022-09-17T10:31:44;6.28;;;3.53;;
15194;SDS011;7698;42.478;23.756;2022-09-17T10:34:17;10.30;;;3.03;;
15194;SDS011;7698;42.478;23.756;2022-09-17T10:36:45;6.28;;;3.03;;
15194;SDS011;7698;42.478;23.756;2022-09-17T10:42:12;5.72;;;2.33;;
15194;SDS011;7698;42.478;23.756;2022-09-17T10:44:49;4.05;;;2.20;;
15194;SDS011;7698;42.478;23.756;2022-09-17T10:47:17;6.82;;;4.50;;
15194;SDS011;7698;42.478;23.756;2022-09-17T10:49:47;5.90;;;3.15;;
15194;SDS011;7698;42.478;23.756;2022-09-17T10:52:20;6.13;;;2.85;;
15194;SDS011;7698;42.478;23.756;2022-09-17T10:57:37;4.88;;;3.17;;
15194;SDS011;7698;42.478;23.756;2022-09-17T11:00:10;12.68;;;9.00;;
15194;SDS011;7698;42.478;23.756;2022-09-17T11:02:58;4.75;;;2.85;;
15194;SDS011;7698;42.478;23.756;2022-09-17T11:05:38;5.10;;;4.60;;
15194;SDS011;7698;42.478;23.756;2022-09-17T11:08:07;2.70;;;2.35;;
15194;SDS011;7698;42.478;23.756;2022-09-17T11:10:38;2.42;;;1.75;;
15194;SDS011;7698;42.478;23.756;2022-09-17T11:13:11;2.72;;;1.50;;
15194;SDS011;7698;42.478;23.756;2022-09-17T11:15:47;3.92;;;1.40;;
15194;SDS011;7698;42.478;23.756;2022-09-17T11:21:14;9.50;;;8.63;;
15194;SDS011;7698;42.478;23.756;2022-09-17T11:23:52;2.92;;;2.08;;
15194;SDS011;7698;42.478;23.756;2022-09-17T11:26:25;2.05;;;1.40;;
15194;SDS011;7698;42.478;23.756;2022-09-17T11:28:58;2.33;;;1.55;;
15194;SDS011;7698;42.478;23.756;2022-09-17T11:31:29;2.65;;;1.45;;
15194;SDS011;7698;42.478;23.756;2022-09-17T11:34:07;2.53;;;1.00;;
15194;SDS011;7698;42.478;23.756;2022-09-17T11:36:37;1.85;;;1.13;;
15194;SDS011;7698;42.478;23.756;2022-09-17T11:39:09;2.65;;;1.35;;
15194;SDS011;7698;42.478;23.756;2022-09-17T11:41:38;2.33;;;1.15;;
15194;SDS011;7698;42.478;23.756;2022-09-17T11:44:09;0.70;;;0.70;;
15194;SDS011;7698;42.478;23.756;2022-09-17T11:46:37;1.30;;;1.13;;
15194;SDS011;7698;42.478;23.756;2022-09-17T11:49:07;2.80;;;1.38;;
15194;SDS011;7698;42.478;23.756;2022-09-17T11:51:41;2.33;;;1.42;;
15194;SDS011;7698;42.478;23.756;2022-09-17T11:54:14;1.40;;;0.88;;
15194;SDS011;7698;42.478;23.756;2022-09-17T11:56:42;3.20;;;1.42;;
15194;SDS011;7698;42.478;23.756;2022-09-17T11:59:12;1.48;;;1.38;;
15194;SDS011;7698;42.478;23.756;2022-09-17T12:01:40;1.65;;;1.20;;
15194;SDS011;7698;42.478;23.756;2022-09-17T12:04:25;1.52;;;1.08;;
15194;SDS011;7698;42.478;23.756;2022-09-17T12:06:56;1.40;;;1.10;;
15194;SDS011;7698;42.478;23.756;2022-09-17T12:09:25;1.13;;;0.90;;
15194;SDS011;7698;42.478;23.756;2022-09-17T12:11:56;1.52;;;0.90;;
15194;SDS011;7698;42.478;23.756;2022-09-17T12:14:28;0.90;;;0.90;;
15194;SDS011;7698;42.478;23.756;2022-09-17T12:16:57;1.40;;;0.85;;
15194;SDS011;7698;42.478;23.756;2022-09-17T12:19:26;1.00;;;0.90;;
15194;SDS011;7698;42.478;23.756;2022-09-17T12:21:55;1.25;;;0.98;;
15194;SDS011;7698;42.478;23.756;2022-09-17T12:24:23;0.80;;;0.70;;
15194;SDS011;7698;42.478;23.756;2022-09-17T12:26:57;1.67;;;1.58;;
15194;SDS011;7698;42.478;23.756;2022-09-17T12:29:32;1.90;;;1.80;;
15194;SDS011;7698;42.478;23.756;2022-09-17T12:32:02;1.20;;;0.90;;
15194;SDS011;7698;42.478;23.756;2022-09-17T12:34:39;1.08;;;0.70;;
15194;SDS011;7698;42.478;23.756;2022-09-17T12:37:09;2.15;;;0.50;;
15194;SDS011;7698;42.478;23.756;2022-09-17T12:42:35;0.55;;;0.55;;
15194;SDS011;7698;42.478;23.756;2022-09-17T12:45:09;2.50;;;0.82;;
15194;SDS011;7698;42.478;23.756;2022-09-17T12:47:42;0.88;;;0.70;;
15194;SDS011;7698;42.478;23.756;2022-09-17T12:50:18;1.13;;;0.60;;
15194;SDS011;7698;42.478;23.756;2022-09-17T12:52:49;0.65;;;0.30;;
15194;SDS011;7698;42.478;23.756;2022-09-17T12:58:07;2.08;;;0.82;;
15194;SDS011;7698;42.478;23.756;2022-09-17T13:00:40;1.48;;;0.63;;
15194;SDS011;7698;42.478;23.756;2022-09-17T13:03:11;17.02;;;15.52;;
15194;SDS011;7698;42.478;23.756;2022-09-17T13:05:44;383.73;;;349.85;;
15194;SDS011;7698;42.478;23.756;2022-09-17T13:08:24;91.82;;;83.45;;
15194;SDS011;7698;42.478;23.756;2022-09-17T13:11:01;32.15;;;29.17;;
15194;SDS011;7698;42.478;23.756;2022-09-17T13:13:34;586.47;;;533.55;;
15194;SDS011;7698;42.478;23.756;2022-09-17T13:16:08;119.25;;;108.60;;
15194;SDS011;7698;42.478;23.756;2022-09-17T13:18:38;47.30;;;43.38;;
15194;SDS011;7698;42.478;23.756;2022-09-17T13:21:08;57.67;;;52.90;;
15194;SDS011;7698;42.478;23.756;2022-09-17T13:23:39;281.08;;;256.33;;
15194;SDS011;7698;42.478;23.756;2022-09-17T13:26:09;115.70;;;105.32;;
15194;SDS011;7698;42.478;23.756;2022-09-17T13:28:39;85.05;;;77.22;;
15194;SDS011;7698;42.478;23.756;2022-09-17T13:31:07;67.43;;;61.25;;
15194;SDS011;7698;42.478;23.756;2022-09-17T13:33:48;81.13;;;74.07;;
15194;SDS011;7698;42.478;23.756;2022-09-17T13:39:07;30.88;;;28.27;;
15194;SDS011;7698;42.478;23.756;2022-09-17T13:41:35;412.20;;;369.08;;
15194;SDS011;7698;42.478;23.756;2022-09-17T13:44:03;484.13;;;431.10;;
15194;SDS011;7698;42.478;23.756;2022-09-17T13:46:31;151.40;;;134.05;;
15194;SDS011;7698;42.478;23.756;2022-09-17T13:48:59;107.15;;;96.13;;
15194;SDS011;7698;42.478;23.756;2022-09-17T13:54:12;500.05;;;451.80;;
15194;SDS011;7698;42.478;23.756;2022-09-17T13:56:40;350.50;;;315.63;;
15194;SDS011;7698;42.478;23.756;2022-09-17T13:59:11;106.28;;;94.75;;
15194;SDS011;7698;42.478;23.756;2022-09-17T14:07:40;27.85;;;25.08;;
15194;SDS011;7698;42.478;23.756;2022-09-17T14:12:54;71.90;;;64.20;;
15194;SDS011;7698;42.478;23.756;2022-09-17T14:15:35;35.92;;;32.22;;
15194;SDS011;7698;42.478;23.756;2022-09-17T14:20:44;66.85;;;60.63;;
15194;SDS011;7698;42.478;23.756;2022-09-17T14:23:12;130.23;;;118.53;;
15194;SDS011;7698;42.478;23.756;2022-09-17T14:25:41;188.50;;;170.35;;
15194;SDS011;7698;42.478;23.756;2022-09-17T14:28:12;197.77;;;177.50;;
15194;SDS011;7698;42.478;23.756;2022-09-17T14:30:41;99.80;;;90.13;;
15194;SDS011;7698;42.478;23.756;2022-09-17T14:33:12;125.57;;;113.18;;
15194;SDS011;7698;42.478;23.756;2022-09-17T14:35:42;45.13;;;40.88;;
15194;SDS011;7698;42.478;23.756;2022-09-17T14:38:10;31.55;;;28.38;;
15194;SDS011;7698;42.478;23.756;2022-09-17T14:40:42;61.80;;;55.88;;
15194;SDS011;7698;42.478;23.756;2022-09-17T14:43:13;28.02;;;25.30;;
15194;SDS011;7698;42.478;23.756;2022-09-17T14:45:41;18.85;;;16.77;;
15194;SDS011;7698;42.478;23.756;2022-09-17T14:48:27;11.27;;;10.13;;
15194;SDS011;7698;42.478;23.756;2022-09-17T14:53:35;11.20;;;8.63;;
15194;SDS011;7698;42.478;23.756;2022-09-17T14:56:03;7.65;;;6.13;;
15194;SDS011;7698;42.478;23.756;2022-09-17T14:58:31;3.92;;;2.55;;
15194;SDS011;7698;42.478;23.756;2022-09-17T15:00:58;12.27;;;9.18;;
15194;SDS011;7698;42.478;23.756;2022-09-17T15:03:25;5.63;;;5.10;;
15194;SDS011;7698;42.478;23.756;2022-09-17T15:05:52;10.00;;;8.90;;
15194;SDS011;7698;42.478;23.756;2022-09-17T15:08:20;3.03;;;2.40;;
15194;SDS011;7698;42.478;23.756;2022-09-17T15:10:48;4.88;;;3.05;;
15194;SDS011;7698;42.478;23.756;2022-09-17T15:13:17;5.80;;;3.40;;
15194;SDS011;7698;42.478;23.756;2022-09-17T15:15:52;1653.75;;;770.15;;
15194;SDS011;7698;42.478;23.756;2022-09-17T15:18:19;802.15;;;695.58;;
15194;SDS011;7698;42.478;23.756;2022-09-17T15:20:46;321.80;;;289.27;;
15194;SDS011;7698;42.478;23.756;2022-09-17T15:23:15;732.80;;;654.92;;
15194;SDS011;7698;42.478;23.756;2022-09-17T15:25:44;1999.90;;;999.90;;
15194;SDS011;7698;42.478;23.756;2022-09-17T15:28:17;1356.15;;;999.90;;
15194;SDS011;7698;42.478;23.756;2022-09-17T15:30:46;1999.90;;;999.90;;
15194;SDS011;7698;42.478;23.756;2022-09-17T15:33:15;1068.32;;;881.40;;
15194;SDS011;7698;42.478;23.756;2022-09-17T15:35:56;806.75;;;727.60;;
15194;SDS011;7698;42.478;23.756;2022-09-17T15:38:25;254.38;;;231.65;;
15194;SDS011;7698;42.478;23.756;2022-09-17T15:40:53;214.00;;;195.10;;
15194;SDS011;7698;42.478;23.756;2022-09-17T15:43:23;1139.93;;;924.85;;
15194;SDS011;7698;42.478;23.756;2022-09-17T15:45:53;551.55;;;497.10;;
15194;SDS011;7698;42.478;23.756;2022-09-17T15:51:05;155.75;;;140.80;;
15194;SDS011;7698;42.478;23.756;2022-09-17T15:53:49;472.23;;;424.48;;
15194;SDS011;7698;42.478;23.756;2022-09-17T15:56:17;296.42;;;267.67;;
15194;SDS011;7698;42.478;23.756;2022-09-17T15:58:52;83.28;;;75.18;;
15194;SDS011;7698;42.478;23.756;2022-09-17T16:04:08;130.57;;;119.18;;
15194;SDS011;7698;42.478;23.756;2022-09-17T16:06:45;72.68;;;65.68;;
15194;SDS011;7698;42.478;23.756;2022-09-17T16:11:54;30.33;;;27.40;;
15194;SDS011;7698;42.478;23.756;2022-09-17T16:14:21;19.67;;;17.67;;
15194;SDS011;7698;42.478;23.756;2022-09-17T16:16:48;16.00;;;14.40;;
15194;SDS011;7698;42.478;23.756;2022-09-17T16:19:18;13.27;;;11.95;;
15194;SDS011;7698;42.478;23.756;2022-09-17T16:21:45;6.35;;;5.78;;
15194;SDS011;7698;42.478;23.756;2022-09-17T16:24:12;11.98;;;9.50;;
15194;SDS011;7698;42.478;23.756;2022-09-17T16:26:39;32.00;;;24.63;;
15194;SDS011;7698;42.478;23.756;2022-09-17T16:29:09;11.98;;;9.40;;
15194;SDS011;7698;42.478;23.756;2022-09-17T16:31:37;13.82;;;11.80;;
15194;SDS011;7698;42.478;23.756;2022-09-17T16:34:04;17.40;;;15.10;;
15194;SDS011;7698;42.478;23.756;2022-09-17T16:36:33;8.07;;;5.40;;
15194;SDS011;7698;42.478;23.756;2022-09-17T16:39:00;3.72;;;3.00;;
15194;SDS011;7698;42.478;23.756;2022-09-17T16:41:27;5.00;;;2.70;;
15194;SDS011;7698;42.478;23.756;2022-09-17T16:43:54;5.63;;;3.20;;
15194;SDS011;7698;42.478;23.756;2022-09-17T16:46:21;4.40;;;2.42;;
15194;SDS011;7698;42.478;23.756;2022-09-17T16:48:48;3.67;;;2.28;;
15194;SDS011;7698;42.478;23.756;2022-09-17T16:51:16;5.63;;;3.38;;
15194;SDS011;7698;42.478;23.756;2022-09-17T16:53:45;7.70;;;6.95;;
15194;SDS011;7698;42.478;23.756;2022-09-17T16:56:13;2.95;;;2.65;;
15194;SDS011;7698;42.478;23.756;2022-09-17T16:58:41;2.53;;;2.13;;
15194;SDS011;7698;42.478;23.756;2022-09-17T17:01:08;4.22;;;3.83;;
15194;SDS011;7698;42.478;23.756;2022-09-17T17:03:35;2.83;;;2.63;;
15194;SDS011;7698;42.478;23.756;2022-09-17T17:06:02;5.43;;;4.88;;
15194;SDS011;7698;42.478;23.756;2022-09-17T17:08:30;5.00;;;4.50;;
15194;SDS011;7698;42.478;23.756;2022-09-17T17:10:58;4.90;;;3.53;;
15194;SDS011;7698;42.478;23.756;2022-09-17T17:13:25;10.95;;;9.93;;
15194;SDS011;7698;42.478;23.756;2022-09-17T17:15:53;14.48;;;13.05;;
15194;SDS011;7698;42.478;23.756;2022-09-17T17:18:19;6.15;;;3.58;;
15194;SDS011;7698;42.478;23.756;2022-09-17T17:20:46;3.72;;;3.42;;
15194;SDS011;7698;42.478;23.756;2022-09-17T17:23:13;8.48;;;7.68;;
15194;SDS011;7698;42.478;23.756;2022-09-17T17:25:40;5.13;;;4.68;;
15194;SDS011;7698;42.478;23.756;2022-09-17T17:28:08;4.80;;;3.53;;
15194;SDS011;7698;42.478;23.756;2022-09-17T17:30:35;9.07;;;8.15;;
15194;SDS011;7698;42.478;23.756;2022-09-17T17:33:02;4.10;;;2.85;;
15194;SDS011;7698;42.478;23.756;2022-09-17T17:35:29;3.38;;;2.97;;
15194;SDS011;7698;42.478;23.756;2022-09-17T17:37:56;3.75;;;2.75;;
15194;SDS011;7698;42.478;23.756;2022-09-17T17:40:23;2.55;;;2.13;;
15194;SDS011;7698;42.478;23.756;2022-09-17T17:42:50;3.78;;;3.35;;
15194;SDS011;7698;42.478;23.756;2022-09-17T17:45:21;4.05;;;2.63;;
15194;SDS011;7698;42.478;23.756;2022-09-17T17:47:48;7.47;;;3.42;;
15194;SDS011;7698;42.478;23.756;2022-09-17T17:50:15;8.90;;;5.38;;
15194;SDS011;7698;42.478;23.756;2022-09-17T17:52:41;7.35;;;5.18;;
15194;SDS011;7698;42.478;23.756;2022-09-17T17:55:12;4.25;;;3.85;;
15194;SDS011;7698;42.478;23.756;2022-09-17T17:57:39;5.72;;;5.15;;
15194;SDS011;7698;42.478;23.756;2022-09-17T18:00:07;3.95;;;3.20;;
15194;SDS011;7698;42.478;23.756;2022-09-17T18:02:37;3.10;;;2.40;;
15194;SDS011;7698;42.478;23.756;2022-09-17T18:05:04;3.17;;;2.10;;
15194;SDS011;7698;42.478;23.756;2022-09-17T18:07:31;3.15;;;2.00;;
15194;SDS011;7698;42.478;23.756;2022-09-17T18:09:58;5.10;;;2.00;;
15194;SDS011;7698;42.478;23.756;2022-09-17T18:12:24;9.10;;;6.70;;
15194;SDS011;7698;42.478;23.756;2022-09-17T18:14:51;11.57;;;10.48;;
15194;SDS011;7698;42.478;23.756;2022-09-17T18:17:18;5.38;;;4.63;;
15194;SDS011;7698;42.478;23.756;2022-09-17T18:19:46;4.05;;;3.65;;
15194;SDS011;7698;42.478;23.756;2022-09-17T18:22:13;5.18;;;4.22;;
15194;SDS011;7698;42.478;23.756;2022-09-17T18:24:40;6.72;;;4.45;;
15194;SDS011;7698;42.478;23.756;2022-09-17T18:27:08;5.22;;;4.43;;
15194;SDS011;7698;42.478;23.756;2022-09-17T18:29:35;7.05;;;6.35;;
15194;SDS011;7698;42.478;23.756;2022-09-17T18:32:02;4.25;;;3.85;;
15194;SDS011;7698;42.478;23.756;2022-09-17T18:34:28;3.85;;;2.95;;
15194;SDS011;7698;42.478;23.756;2022-09-17T18:36:57;5.03;;;3.50;;
15194;SDS011;7698;42.478;23.756;2022-09-17T18:39:24;9.90;;;8.75;;
15194;SDS011;7698;42.478;23.756;2022-09-17T18:41:51;6.32;;;4.07;;
15194;SDS011;7698;42.478;23.756;2022-09-17T18:44:17;5.43;;;4.93;;
15194;SDS011;7698;42.478;23.756;2022-09-17T18:46:45;5.20;;;3.72;;
15194;SDS011;7698;42.478;23.756;2022-09-17T18:49:14;3.95;;;3.33;;
15194;SDS011;7698;42.478;23.756;2022-09-17T18:51:41;3.75;;;3.33;;
15194;SDS011;7698;42.478;23.756;2022-09-17T18:54:09;3.30;;;2.97;;
15194;SDS011;7698;42.478;23.756;2022-09-17T18:56:36;3.15;;;2.92;;
15194;SDS011;7698;42.478;23.756;2022-09-17T18:59:04;8.60;;;3.85;;
15194;SDS011;7698;42.478;23.756;2022-09-17T19:01:31;5.05;;;4.40;;
15194;SDS011;7698;42.478;23.756;2022-09-17T19:03:58;4.30;;;3.72;;
15194;SDS011;7698;42.478;23.756;2022-09-17T19:06:25;4.65;;;4.13;;
15194;SDS011;7698;42.478;23.756;2022-09-17T19:08:52;6.65;;;5.20;;
15194;SDS011;7698;42.478;23.756;2022-09-17T19:11:21;6.88;;;4.35;;
15194;SDS011;7698;42.478;23.756;2022-09-17T19:13:48;4.82;;;3.95;;
15194;SDS011;7698;42.478;23.756;2022-09-17T19:16:15;5.72;;;4.97;;
15194;SDS011;7698;42.478;23.756;2022-09-17T19:18:41;5.95;;;5.45;;
15194;SDS011;7698;42.478;23.756;2022-09-17T19:21:09;4.03;;;3.33;;
15194;SDS011;7698;42.478;23.756;2022-09-17T19:23:38;3.22;;;2.80;;
15194;SDS011;7698;42.478;23.756;2022-09-17T19:26:05;3.08;;;2.78;;
15194;SDS011;7698;42.478;23.756;2022-09-17T19:28:33;6.18;;;5.28;;
15194;SDS011;7698;42.478;23.756;2022-09-17T19:31:02;3.30;;;3.10;;
15194;SDS011;7698;42.478;23.756;2022-09-17T19:33:28;4.20;;;2.75;;
15194;SDS011;7698;42.478;23.756;2022-09-17T19:35:57;6.00;;;3.97;;
15194;SDS011;7698;42.478;23.756;2022-09-17T19:38:24;5.45;;;3.90;;
15194;SDS011;7698;42.478;23.756;2022-09-17T19:40:54;4.72;;;3.60;;
15194;SDS011;7698;42.478;23.756;2022-09-17T19:43:21;4.40;;;3.38;;
15194;SDS011;7698;42.478;23.756;2022-09-17T19:45:49;4.68;;;3.70;;
15194;SDS011;7698;42.478;23.756;2022-09-17T19:48:16;3.83;;;3.40;;
15194;SDS011;7698;42.478;23.756;2022-09-17T19:50:48;3.78;;;3.25;;
15194;SDS011;7698;42.478;23.756;2022-09-17T19:53:15;4.32;;;3.45;;
15194;SDS011;7698;42.478;23.756;2022-09-17T19:55:42;5.47;;;3.17;;
15194;SDS011;7698;42.478;23.756;2022-09-17T19:58:09;3.40;;;3.10;;
15194;SDS011;7698;42.478;23.756;2022-09-17T20:00:35;3.55;;;3.25;;
15194;SDS011;7698;42.478;23.756;2022-09-17T20:03:04;3.85;;;3.50;;
15194;SDS011;7698;42.478;23.756;2022-09-17T20:05:31;4.00;;;3.25;;
15194;SDS011;7698;42.478;23.756;2022-09-17T20:07:58;3.78;;;3.45;;
15194;SDS011;7698;42.478;23.756;2022-09-17T20:10:24;5.75;;;3.55;;
15194;SDS011;7698;42.478;23.756;2022-09-17T20:12:51;4.05;;;3.10;;
15194;SDS011;7698;42.478;23.756;2022-09-17T20:15:18;3.38;;;3.03;;
15194;SDS011;7698;42.478;23.756;2022-09-17T20:17:44;6.63;;;3.42;;